createdAt,value
2017-06-05T00:01:17.628Z,4.97
2017-06-05T00:03:43.956Z,5.30
2017-06-05T00:06:10.283Z,5.53
2017-06-05T00:08:43.339Z,4.83
2017-06-05T00:11:13.722Z,4.90
2017-06-05T00:13:46.762Z,6.03
2017-06-05T00:16:19.792Z,5.43
2017-06-05T00:18:52.508Z,5.57
2017-06-05T00:21:18.937Z,5.10
2017-06-05T00:23:45.295Z,5.90
2017-06-05T00:26:12.689Z,4.87
2017-06-05T00:28:39.053Z,5.00
2017-06-05T00:31:05.432Z,4.73
2017-06-05T00:33:31.785Z,4.40
2017-06-05T00:35:58.115Z,4.33
2017-06-05T00:38:24.464Z,3.83
2017-06-05T00:40:50.830Z,4.57
2017-06-05T00:43:17.191Z,4.40
2017-06-05T00:45:43.527Z,4.10
2017-06-05T00:48:09.922Z,4.87
2017-06-05T00:50:36.704Z,4.20
2017-06-05T00:53:03.597Z,4.70
2017-06-05T00:55:30.546Z,4.70
2017-06-05T00:57:56.880Z,4.27
2017-06-05T01:00:23.553Z,3.97
2017-06-05T01:02:49.930Z,5.30
2017-06-05T01:05:16.930Z,4.73
2017-06-05T01:07:43.260Z,4.50
2017-06-05T01:10:09.768Z,4.63
2017-06-05T01:12:36.880Z,4.37
2017-06-05T01:15:03.805Z,4.33
2017-06-05T01:17:30.358Z,3.70
2017-06-05T01:19:57.246Z,3.97
2017-06-05T01:22:23.592Z,4.67
2017-06-05T01:24:49.982Z,4.17
2017-06-05T01:27:20.290Z,3.93
2017-06-05T01:29:53.443Z,3.57
2017-06-05T01:32:26.280Z,4.07
2017-06-05T01:34:58.859Z,4.87
2017-06-05T01:37:31.592Z,4.80
2017-06-05T01:40:04.172Z,4.30
2017-06-05T01:42:36.585Z,4.60
2017-06-05T01:45:08.974Z,4.30
2017-06-05T01:47:41.821Z,5.20
2017-06-05T01:53:01.602Z,5.03
2017-06-05T01:55:27.972Z,4.60
2017-06-05T01:57:54.363Z,4.40
2017-06-05T02:00:20.761Z,5.03
2017-06-05T02:02:47.219Z,5.30
2017-06-05T02:05:13.566Z,5.40
2017-06-05T02:07:39.897Z,4.60
2017-06-05T02:10:06.277Z,5.10
2017-06-05T02:12:32.665Z,4.77
2017-06-05T02:14:59.039Z,4.47
2017-06-05T02:17:25.391Z,4.27
2017-06-05T02:19:51.761Z,4.53
2017-06-05T02:22:18.124Z,4.60
2017-06-05T02:24:44.518Z,3.23
2017-06-05T02:27:10.868Z,3.80
2017-06-05T02:29:37.202Z,3.93
2017-06-05T02:32:03.524Z,4.87
2017-06-05T02:34:29.877Z,4.53
2017-06-05T02:36:56.235Z,5.50
2017-06-05T02:39:22.579Z,5.30
2017-06-05T02:41:48.923Z,5.40
2017-06-05T02:44:15.287Z,5.50
2017-06-05T02:46:41.637Z,5.07
2017-06-05T02:49:08.101Z,5.77
2017-06-05T02:51:34.472Z,4.87
2017-06-05T02:54:00.811Z,6.10
2017-06-05T02:56:27.165Z,5.57
2017-06-05T02:58:53.584Z,5.73
2017-06-05T03:01:19.926Z,5.03
2017-06-05T03:03:46.285Z,5.63
2017-06-05T03:06:12.713Z,6.20
2017-06-05T03:08:39.130Z,5.60
2017-06-05T03:11:05.474Z,5.43
2017-06-05T03:13:31.826Z,5.27
2017-06-05T03:15:58.185Z,5.27
2017-06-05T03:18:24.643Z,5.13
2017-06-05T03:20:51.008Z,5.00
2017-06-05T03:23:17.378Z,5.13
2017-06-05T03:25:43.736Z,5.00
2017-06-05T03:28:10.115Z,4.90
2017-06-05T03:30:36.476Z,5.17
2017-06-05T03:33:02.811Z,4.40
2017-06-05T03:35:29.167Z,5.10
2017-06-05T03:37:55.499Z,4.63
2017-06-05T03:40:21.901Z,4.90
2017-06-05T03:42:48.261Z,4.23
2017-06-05T03:45:14.620Z,5.83
2017-06-05T03:47:40.950Z,4.73
2017-06-05T03:50:07.303Z,4.53
2017-06-05T03:52:33.641Z,4.70
2017-06-05T03:55:00.083Z,4.33
2017-06-05T03:57:26.429Z,5.27
2017-06-05T03:59:52.776Z,3.97
2017-06-05T04:02:19.108Z,4.87
2017-06-05T04:04:45.462Z,3.90
2017-06-05T04:07:11.806Z,4.33
2017-06-05T04:09:38.170Z,4.80
2017-06-05T04:12:04.511Z,4.47
2017-06-05T04:14:30.868Z,4.70
2017-06-05T04:16:57.232Z,4.10
2017-06-05T04:19:23.586Z,4.70
2017-06-05T04:21:49.988Z,4.37
2017-06-05T04:24:16.359Z,4.30
2017-06-05T04:26:42.728Z,4.73
2017-06-05T04:29:09.083Z,3.93
2017-06-05T04:31:35.436Z,4.40
2017-06-05T04:34:01.805Z,4.17
2017-06-05T04:36:28.150Z,3.80
2017-06-05T04:38:54.493Z,3.60
2017-06-05T04:41:20.863Z,3.53
2017-06-05T04:43:47.273Z,3.53
2017-06-05T04:46:13.640Z,3.07
2017-06-05T04:48:40.013Z,3.43
2017-06-05T04:51:06.379Z,3.60
2017-06-05T04:53:32.816Z,3.63
2017-06-05T04:55:59.177Z,3.53
2017-06-05T04:58:25.534Z,2.93
2017-06-05T05:00:51.881Z,3.87
2017-06-05T05:03:18.257Z,3.63
2017-06-05T05:05:44.622Z,3.40
2017-06-05T05:08:10.981Z,3.20
2017-06-05T05:10:37.330Z,3.57
2017-06-05T05:13:03.750Z,3.40
2017-06-05T05:15:30.097Z,3.17
2017-06-05T05:17:56.426Z,2.80
2017-06-05T05:20:22.777Z,3.40
2017-06-05T05:22:49.123Z,3.10
2017-06-05T05:25:15.491Z,2.60
2017-06-05T05:27:41.857Z,2.93
2017-06-05T05:30:08.219Z,3.43
2017-06-05T05:32:34.636Z,3.10
2017-06-05T05:35:00.992Z,3.23
2017-06-05T05:37:27.335Z,3.47
2017-06-05T05:39:53.706Z,2.80
2017-06-05T05:42:20.067Z,2.60
2017-06-05T05:44:46.441Z,3.20
2017-06-05T05:47:12.802Z,3.27
2017-06-05T05:49:39.205Z,2.63
2017-06-05T05:52:05.568Z,3.50
2017-06-05T05:54:31.909Z,3.47
2017-06-05T05:56:58.223Z,2.97
2017-06-05T05:59:24.550Z,3.30
2017-06-05T06:01:50.909Z,3.37
2017-06-05T06:04:17.251Z,3.00
2017-06-05T06:06:43.577Z,2.77
2017-06-05T06:09:09.988Z,2.77
2017-06-05T06:11:36.332Z,2.87
2017-06-05T06:14:02.683Z,3.53
2017-06-05T06:16:29.016Z,3.00
2017-06-05T06:18:55.394Z,3.40
2017-06-05T06:21:21.738Z,2.83
2017-06-05T06:23:48.083Z,3.20
2017-06-05T06:26:20.890Z,2.80
2017-06-05T06:28:47.228Z,3.20
2017-06-05T06:31:13.593Z,2.97
2017-06-05T06:33:39.948Z,3.13
2017-06-05T06:36:06.313Z,3.50
2017-06-05T06:38:32.667Z,2.40
2017-06-05T06:40:59.049Z,3.00
2017-06-05T06:43:25.813Z,3.20
2017-06-05T06:45:52.162Z,3.07
2017-06-05T06:48:18.513Z,3.07
2017-06-05T06:50:44.899Z,2.70
2017-06-05T06:53:11.260Z,2.30
2017-06-05T06:55:37.597Z,2.90
2017-06-05T06:58:03.926Z,2.87
2017-06-05T07:00:30.285Z,2.30
2017-06-05T07:02:56.646Z,2.20
2017-06-05T07:05:23.010Z,2.03
2017-06-05T07:07:49.410Z,2.80
2017-06-05T07:10:15.786Z,2.20
2017-06-05T07:12:42.171Z,2.20
2017-06-05T07:15:08.515Z,1.90
2017-06-05T07:17:34.882Z,2.27
2017-06-05T07:20:01.257Z,2.17
2017-06-05T07:22:27.595Z,1.80
2017-06-05T07:24:54.006Z,1.77
2017-06-05T07:27:20.367Z,1.73
2017-06-05T07:29:46.789Z,1.93
2017-06-05T07:32:13.149Z,1.80
2017-06-05T07:34:39.515Z,2.07
2017-06-05T07:37:05.873Z,1.67
2017-06-05T07:39:32.209Z,1.50
2017-06-05T07:41:58.694Z,1.63
2017-06-05T07:44:25.036Z,2.00
2017-06-05T07:46:51.386Z,2.30
2017-06-05T07:49:17.842Z,1.70
2017-06-05T07:51:44.180Z,1.53
2017-06-05T07:54:10.532Z,1.73
2017-06-05T07:56:36.871Z,2.20
2017-06-05T07:59:03.270Z,1.40
2017-06-05T08:01:29.752Z,1.30
2017-06-05T08:03:56.153Z,1.47
2017-06-05T08:06:22.482Z,2.00
2017-06-05T08:08:48.866Z,2.17
2017-06-05T08:11:15.241Z,1.87
2017-06-05T08:13:41.591Z,1.63
2017-06-05T08:16:07.929Z,1.60
2017-06-05T08:18:34.275Z,2.00
2017-06-05T08:21:00.614Z,2.47
2017-06-05T08:23:26.956Z,2.10
2017-06-05T08:25:53.303Z,2.93
2017-06-05T08:28:19.651Z,2.03
2017-06-05T08:30:46.108Z,1.87
2017-06-05T08:33:12.482Z,2.50
2017-06-05T08:35:38.891Z,1.93
2017-06-05T08:38:05.260Z,2.17
2017-06-05T08:40:31.852Z,2.50
2017-06-05T08:42:58.236Z,2.87
2017-06-05T08:45:25.354Z,2.30
2017-06-05T08:47:51.724Z,2.40
2017-06-05T08:50:18.069Z,2.23
2017-06-05T08:52:44.402Z,2.03
2017-06-05T08:55:10.775Z,2.00
2017-06-05T08:57:37.211Z,2.77
2017-06-05T09:00:03.569Z,2.13
2017-06-05T09:02:29.929Z,2.00
2017-06-05T09:04:56.413Z,2.30
2017-06-05T09:07:22.799Z,2.30
2017-06-05T09:09:49.150Z,2.50
2017-06-05T09:12:15.518Z,2.63
2017-06-05T09:14:42.018Z,2.30
2017-06-05T09:17:08.353Z,2.17
2017-06-05T09:19:34.720Z,2.40
2017-06-05T09:22:07.385Z,2.53
2017-06-05T09:24:33.776Z,1.90
2017-06-05T09:27:06.814Z,2.50
2017-06-05T09:32:26.383Z,2.30
2017-06-05T09:34:52.758Z,2.80
2017-06-05T09:37:19.161Z,2.67
2017-06-05T09:39:45.509Z,2.20
2017-06-05T09:42:11.866Z,2.10
2017-06-05T09:44:38.309Z,2.20
2017-06-05T09:47:04.666Z,2.00
2017-06-05T09:49:31.031Z,2.10
2017-06-05T09:51:57.378Z,2.20
2017-06-05T09:54:30.367Z,1.77
2017-06-05T09:57:02.855Z,1.90
2017-06-05T09:59:35.438Z,2.10
2017-06-05T10:02:07.692Z,2.10
2017-06-05T10:04:40.048Z,1.73
2017-06-05T10:07:06.383Z,1.37
2017-06-05T10:09:32.710Z,1.50
2017-06-05T10:11:59.066Z,1.40
2017-06-05T10:14:25.411Z,1.50
2017-06-05T10:16:51.766Z,1.50
2017-06-05T10:19:18.124Z,1.73
2017-06-05T10:21:44.450Z,1.83
2017-06-05T10:24:10.823Z,1.73
2017-06-05T10:26:43.449Z,2.30
2017-06-05T10:29:09.791Z,1.80
2017-06-05T10:31:42.927Z,2.20
2017-06-05T10:34:09.309Z,1.90
2017-06-05T10:36:35.679Z,1.57
2017-06-05T10:39:02.086Z,1.47
2017-06-05T10:41:28.409Z,1.53
2017-06-05T10:43:54.734Z,1.90
2017-06-05T10:46:21.117Z,1.70
2017-06-05T10:48:47.459Z,2.30
2017-06-05T10:51:13.811Z,1.70
2017-06-05T10:53:40.165Z,2.03
2017-06-05T10:56:06.508Z,2.10
2017-06-05T10:58:32.888Z,2.10
2017-06-05T11:00:59.219Z,1.77
2017-06-05T11:03:25.577Z,1.80
2017-06-05T11:05:51.981Z,1.10
2017-06-05T11:08:42.288Z,1.20
2017-06-05T11:11:08.619Z,1.20
2017-06-05T11:13:35.009Z,1.60
2017-06-05T11:16:01.360Z,1.37
2017-06-05T11:18:27.794Z,1.23
2017-06-05T11:20:54.153Z,1.60
2017-06-05T11:23:20.591Z,1.97
2017-06-05T11:25:53.263Z,1.33
2017-06-05T11:28:26.190Z,1.60
2017-06-05T11:30:52.531Z,1.40
2017-06-05T11:33:18.985Z,1.60
2017-06-05T11:35:51.202Z,1.90
2017-06-05T11:38:17.561Z,1.77
2017-06-05T11:40:44.929Z,1.53
2017-06-05T11:43:11.303Z,1.77
2017-06-05T11:45:37.662Z,1.80
2017-06-05T11:48:04.114Z,1.97
2017-06-05T11:50:30.525Z,1.83
2017-06-05T11:52:56.890Z,2.00
2017-06-05T11:55:23.279Z,1.77
2017-06-05T11:57:49.685Z,1.90
2017-06-05T12:00:16.087Z,2.03
2017-06-05T12:02:42.485Z,1.73
2017-06-05T12:05:08.979Z,2.27
2017-06-05T12:07:35.363Z,1.90
2017-06-05T12:10:01.772Z,2.00
2017-06-05T12:12:28.974Z,1.80
2017-06-05T12:14:55.357Z,1.70
2017-06-05T12:17:21.752Z,2.60
2017-06-05T12:19:48.145Z,1.90
2017-06-05T12:22:14.499Z,2.00
2017-06-05T12:24:44.604Z,1.73
2017-06-05T12:27:14.895Z,1.70
2017-06-05T12:29:41.288Z,1.93
2017-06-05T12:32:07.676Z,2.00
2017-06-05T12:34:34.054Z,1.70
2017-06-05T12:37:07.141Z,1.87
2017-06-05T12:39:33.490Z,1.47
2017-06-05T12:41:59.829Z,1.60
2017-06-05T12:44:26.283Z,1.70
2017-06-05T12:46:52.668Z,2.17
2017-06-05T12:49:26.240Z,2.20
2017-06-05T12:51:52.777Z,1.93
2017-06-05T12:54:26.136Z,1.70
2017-06-05T12:56:59.320Z,1.77
2017-06-05T12:59:29.879Z,1.80
2017-06-05T13:02:00.518Z,1.80
2017-06-05T13:04:33.185Z,1.57
2017-06-05T13:07:05.818Z,1.87
2017-06-05T13:09:38.465Z,1.30
2017-06-05T13:12:04.826Z,1.57
2017-06-05T13:14:31.216Z,1.20
2017-06-05T13:17:01.632Z,1.13
2017-06-05T13:19:28.042Z,1.37
2017-06-05T13:21:54.423Z,1.40
2017-06-05T13:24:27.520Z,0.90
2017-06-05T13:27:00.863Z,1.40
2017-06-05T13:29:27.237Z,1.10
2017-06-05T13:31:59.527Z,0.90
2017-06-05T13:34:32.330Z,0.80
2017-06-05T13:37:15.415Z,1.50
2017-06-05T13:39:41.778Z,1.03
2017-06-05T13:42:09.254Z,0.83
2017-06-05T13:44:35.691Z,1.37
2017-06-05T13:47:02.635Z,0.87
2017-06-05T13:49:36.115Z,1.00
2017-06-05T13:52:09.011Z,1.10
2017-06-05T13:54:41.818Z,1.00
2017-06-05T13:57:08.175Z,1.17
2017-06-05T13:59:34.549Z,1.10
2017-06-05T14:02:00.918Z,1.50
2017-06-05T14:04:27.289Z,1.20
2017-06-05T14:07:01.573Z,1.43
2017-06-05T14:09:31.384Z,1.07
2017-06-05T14:12:03.784Z,1.10
2017-06-05T14:14:30.160Z,0.93
2017-06-05T14:16:56.521Z,1.13
2017-06-05T14:19:29.576Z,1.50
2017-06-05T14:22:02.419Z,1.20
2017-06-05T14:24:35.147Z,1.17
2017-06-05T14:27:09.338Z,1.13
2017-06-05T14:29:42.539Z,1.00
2017-06-05T14:32:15.414Z,1.03
2017-06-05T14:34:47.956Z,1.10
2017-06-05T14:37:29.879Z,1.20
2017-06-05T14:40:03.660Z,2.97
2017-06-05T14:42:36.702Z,1.33
2017-06-05T14:45:09.287Z,1.37
2017-06-05T14:47:35.646Z,1.23
2017-06-05T14:50:08.149Z,1.17
2017-06-05T14:52:38.318Z,1.30
2017-06-05T14:55:04.681Z,1.10
2017-06-05T14:57:31.040Z,1.10
2017-06-05T14:59:57.411Z,1.20
2017-06-05T15:02:23.810Z,1.30
2017-06-05T15:04:50.237Z,1.07
2017-06-05T15:07:16.602Z,1.10
2017-06-05T15:09:42.977Z,1.27
2017-06-05T15:12:09.426Z,1.00
2017-06-05T15:14:42.315Z,1.30
2017-06-05T15:17:08.690Z,0.93
2017-06-05T15:19:35.117Z,1.50
2017-06-05T15:22:01.577Z,1.30
2017-06-05T15:24:27.916Z,1.20
2017-06-05T15:26:54.279Z,1.30
2017-06-05T15:29:20.681Z,1.40
2017-06-05T15:31:47.026Z,1.50
2017-06-05T15:34:13.393Z,1.47
2017-06-05T15:36:39.755Z,1.23
2017-06-05T15:39:06.136Z,1.40
2017-06-05T15:41:32.507Z,1.20
2017-06-05T15:43:58.882Z,1.30
2017-06-05T15:46:25.264Z,1.00
2017-06-05T15:48:51.699Z,0.90
2017-06-05T15:51:18.124Z,1.00
2017-06-05T15:53:44.502Z,1.37
2017-06-05T15:56:10.879Z,1.10
2017-06-05T15:58:37.266Z,1.10
2017-06-05T16:01:03.608Z,1.17
2017-06-05T16:03:30.127Z,1.10
2017-06-05T16:05:56.487Z,1.17
2017-06-05T16:08:22.844Z,1.07
2017-06-05T16:10:49.190Z,1.40
2017-06-05T16:13:15.561Z,1.10
2017-06-05T16:15:41.947Z,1.13
2017-06-05T16:18:08.322Z,1.33
2017-06-05T16:20:34.696Z,1.00
2017-06-05T16:23:01.069Z,1.00
2017-06-05T16:25:27.499Z,2.60
2017-06-05T16:27:53.876Z,1.47
2017-06-05T16:30:20.271Z,1.63
2017-06-05T16:32:46.663Z,1.00
2017-06-05T16:35:13.002Z,1.20
2017-06-05T16:37:39.352Z,1.00
2017-06-05T16:40:05.722Z,1.00
2017-06-05T16:42:32.187Z,1.23
2017-06-05T16:44:58.552Z,0.97
2017-06-05T16:47:24.924Z,0.97
2017-06-05T16:49:51.293Z,0.80
2017-06-05T16:52:17.784Z,1.07
2017-06-05T16:54:44.128Z,1.00
2017-06-05T16:57:10.496Z,1.23
2017-06-05T16:59:36.874Z,1.03
2017-06-05T17:02:03.253Z,1.20
2017-06-05T17:04:29.605Z,1.30
2017-06-05T17:06:55.967Z,0.97
2017-06-05T17:09:22.338Z,1.00
2017-06-05T17:11:48.710Z,1.00
2017-06-05T17:14:15.286Z,1.00
2017-06-05T17:16:41.669Z,0.70
2017-06-05T17:19:08.833Z,1.00
2017-06-05T17:21:35.194Z,1.13
2017-06-05T17:24:01.564Z,1.53
2017-06-05T17:26:28.070Z,1.10
2017-06-05T17:28:54.446Z,0.90
2017-06-05T17:31:20.804Z,1.10
2017-06-05T17:33:47.171Z,1.27
2017-06-05T17:36:13.615Z,1.20
2017-06-05T17:38:39.963Z,1.10
2017-06-05T17:41:06.329Z,0.90
2017-06-05T17:43:32.682Z,1.20
2017-06-05T17:45:59.086Z,1.37
2017-06-05T17:48:25.497Z,1.33
2017-06-05T17:50:51.886Z,1.23
2017-06-05T17:53:18.296Z,0.90
2017-06-05T17:55:44.734Z,1.40
2017-06-05T17:58:11.095Z,1.00
2017-06-05T18:00:37.465Z,0.80
2017-06-05T18:03:03.863Z,1.10
2017-06-05T18:05:30.249Z,1.10
2017-06-05T18:07:56.618Z,0.97
2017-06-05T18:10:22.976Z,0.93
2017-06-05T18:12:49.448Z,1.20
2017-06-05T18:15:15.850Z,1.17
2017-06-05T18:17:42.197Z,1.10
2017-06-05T18:20:08.523Z,1.13
2017-06-05T18:22:34.886Z,0.80
2017-06-05T18:25:01.249Z,0.90
2017-06-05T18:27:28.266Z,1.10
2017-06-05T18:29:56.030Z,0.90
2017-06-05T18:32:22.464Z,1.07
2017-06-05T18:34:49.503Z,0.80
2017-06-05T18:37:16.508Z,0.97
2017-06-05T18:39:42.853Z,1.30
2017-06-05T18:42:09.373Z,1.10
2017-06-05T18:44:35.872Z,0.87
2017-06-05T18:47:02.796Z,1.00
2017-06-05T18:49:29.488Z,1.00
2017-06-05T18:51:56.467Z,1.43
2017-06-05T18:54:23.263Z,1.03
2017-06-05T18:56:49.741Z,0.90
2017-06-05T18:59:16.235Z,1.23
2017-06-05T19:01:42.775Z,1.30
2017-06-05T19:04:09.557Z,0.93
2017-06-05T19:06:36.152Z,1.50
2017-06-05T19:09:02.640Z,0.90
2017-06-05T19:11:29.334Z,1.20
2017-06-05T19:13:56.665Z,1.13
2017-06-05T19:16:23.360Z,1.83
2017-06-05T19:18:49.782Z,1.33
2017-06-05T19:21:16.198Z,1.13
2017-06-05T19:23:42.584Z,1.10
2017-06-05T19:26:09.148Z,1.10
2017-06-05T19:28:35.566Z,1.50
2017-06-05T19:31:01.951Z,1.50
2017-06-05T19:33:28.355Z,0.90
2017-06-05T19:35:54.711Z,1.10
2017-06-05T19:38:21.190Z,1.00
2017-06-05T19:40:47.560Z,0.90
2017-06-05T19:43:13.945Z,1.13
2017-06-05T19:45:40.337Z,1.40
2017-06-05T19:48:06.774Z,1.23
2017-06-05T19:50:33.132Z,1.10
2017-06-05T19:52:59.505Z,1.07
2017-06-05T19:55:25.855Z,1.20
2017-06-05T19:57:52.626Z,2.10
2017-06-05T20:00:19.321Z,2.47
2017-06-05T20:02:47.118Z,1.33
2017-06-05T20:05:13.575Z,1.57
2017-06-05T20:07:39.947Z,1.70
2017-06-05T20:10:06.374Z,1.50
2017-06-05T20:12:32.720Z,1.53
2017-06-05T20:14:59.176Z,1.33
2017-06-05T20:17:25.530Z,1.77
2017-06-05T20:19:52.000Z,1.47
2017-06-05T20:22:18.948Z,1.40
2017-06-05T20:24:45.339Z,1.30
2017-06-05T20:27:11.717Z,1.40
2017-06-05T20:29:38.446Z,1.30
2017-06-05T20:32:04.871Z,1.57
2017-06-05T20:34:31.373Z,1.50
2017-06-05T20:36:57.965Z,1.73
2017-06-05T20:39:24.320Z,2.07
2017-06-05T20:41:50.724Z,1.80
2017-06-05T20:55:12.524Z,2.10
2017-06-05T20:57:38.870Z,2.10
2017-06-05T21:00:05.243Z,2.10
2017-06-05T21:02:31.716Z,1.70
2017-06-05T21:04:58.062Z,1.70
2017-06-05T21:07:24.435Z,2.33
2017-06-05T21:09:50.803Z,2.07
2017-06-05T21:12:17.247Z,2.23
2017-06-05T21:14:43.595Z,3.07
2017-06-05T21:17:09.929Z,2.70
2017-06-05T21:19:36.360Z,2.40
2017-06-05T21:22:02.730Z,2.17
2017-06-05T21:24:29.086Z,2.00
2017-06-05T21:26:55.442Z,2.27
2017-06-05T21:29:21.840Z,2.47
2017-06-05T21:31:48.289Z,2.53
2017-06-05T21:34:14.629Z,1.93
2017-06-05T21:36:40.993Z,2.20
2017-06-05T21:39:07.457Z,2.47
2017-06-05T21:41:33.869Z,1.77
2017-06-05T21:44:00.227Z,2.27
2017-06-05T21:46:26.564Z,2.10
2017-06-05T21:48:53.230Z,1.90
2017-06-05T21:51:19.586Z,2.83
2017-06-05T21:53:45.945Z,2.00
2017-06-05T21:56:12.279Z,2.00
2017-06-05T21:58:38.617Z,2.57
2017-06-05T22:01:04.974Z,1.73
2017-06-05T22:03:31.335Z,2.30
2017-06-05T22:05:57.694Z,3.00
2017-06-05T22:08:24.139Z,2.43
2017-06-05T22:10:50.593Z,2.10
2017-06-05T22:13:16.957Z,2.20
2017-06-05T22:15:43.322Z,2.30
2017-06-05T22:18:09.731Z,2.30
2017-06-05T22:20:36.072Z,2.60
2017-06-05T22:23:03.471Z,2.37
2017-06-05T22:25:32.595Z,3.07
2017-06-05T22:28:02.556Z,2.07
2017-06-05T22:30:29.128Z,2.60
2017-06-05T22:32:55.500Z,3.27
2017-06-05T22:35:22.340Z,2.60
2017-06-05T22:37:49.267Z,2.90
2017-06-05T22:40:15.620Z,2.47
2017-06-05T22:42:41.969Z,2.80
2017-06-05T22:45:08.297Z,2.70
2017-06-05T22:47:34.657Z,3.23
2017-06-05T22:50:00.996Z,3.80
2017-06-05T22:52:27.336Z,3.40
2017-06-05T22:54:53.716Z,3.23
2017-06-05T22:57:20.085Z,3.67
2017-06-05T22:59:46.415Z,3.33
2017-06-05T23:02:12.744Z,3.17
2017-06-05T23:04:39.079Z,3.40
2017-06-05T23:07:05.511Z,3.90
2017-06-05T23:09:31.839Z,2.97
2017-06-05T23:11:58.194Z,3.43
2017-06-05T23:14:24.538Z,3.70
2017-06-05T23:16:50.943Z,3.57
2017-06-05T23:19:17.280Z,3.80
2017-06-05T23:21:43.626Z,3.43
2017-06-05T23:24:09.963Z,3.90
2017-06-05T23:26:36.341Z,3.80
2017-06-05T23:29:02.687Z,4.17
2017-06-05T23:31:29.016Z,3.90
2017-06-05T23:33:55.328Z,4.43
2017-06-05T23:36:21.750Z,4.33
2017-06-05T23:38:48.108Z,4.17
2017-06-05T23:41:14.819Z,3.93
2017-06-05T23:43:41.206Z,4.87
2017-06-05T23:46:07.554Z,3.73
2017-06-05T23:48:33.890Z,4.23
2017-06-05T23:51:00.715Z,4.80
2017-06-05T23:53:27.274Z,4.90
2017-06-05T23:55:54.574Z,4.20
2017-06-05T23:58:20.961Z,4.50
